Time;durP1;ratioP1;P1;durP2;ratioP2;P2;SDS_P1;SDS_P2;PMS_P1;PMS_P2;Temp;Humidity;BMP_temperature;BMP_pressure;BME280_temperature;BME280_humidity;BME280_pressure;Samples;Min_cycle;Max_cycle;Signal;HPM_P1;HPM_P2
2024/01/21 00:00:20;;;;;;;12.43;7.30;;;0.40;99.90;;;;;;5071683;28;20488;-67
2024/01/21 00:02:46;;;;;;;12.35;7.55;;;0.20;99.90;;;;;;5051671;28;20049;-67
2024/01/21 00:05:15;;;;;;;12.23;6.80;;;0.20;99.90;;;;;;5053167;28;20053;-68
2024/01/21 00:07:41;;;;;;;9.60;6.80;;;0.20;99.90;;;;;;5071629;28;20106;-68
2024/01/21 00:10:09;;;;;;;10.20;6.63;;;0.20;99.90;;;;;;5053190;28;20059;-67
2024/01/21 00:12:37;;;;;;;11.63;6.93;;;0.20;99.90;;;;;;5053796;28;20450;-67
2024/01/21 00:15:04;;;;;;;13.43;7.35;;;0.20;99.90;;;;;;5051730;28;20053;-66
2024/01/21 00:17:31;;;;;;;11.35;6.78;;;0.20;99.90;;;;;;5052437;28;20057;-66
2024/01/21 00:19:58;;;;;;;10.70;7.32;;;0.20;99.90;;;;;;5053296;28;20048;-67
2024/01/21 00:22:26;;;;;;;10.25;6.95;;;0.20;99.90;;;;;;5054551;28;20090;-66
2024/01/21 00:24:53;;;;;;;10.00;7.45;;;0.20;99.90;;;;;;5072519;28;20116;-67
2024/01/21 00:27:20;;;;;;;10.15;6.78;;;0.20;99.90;;;;;;5073288;28;20048;-66
2024/01/21 00:29:47;;;;;;;11.23;7.45;;;0.20;99.90;;;;;;5090903;28;20081;-67
2024/01/21 00:32:14;;;;;;;11.15;6.72;;;0.40;99.90;;;;;;5049275;28;20467;-66
2024/01/21 00:34:41;;;;;;;10.60;7.50;;;0.20;99.90;;;;;;5053207;28;20057;-67
2024/01/21 00:37:07;;;;;;;8.73;6.63;;;0.20;99.90;;;;;;5052868;28;20057;-67
2024/01/21 00:39:36;;;;;;;10.10;7.35;;;0.10;99.90;;;;;;5071283;28;20044;-67
2024/01/21 00:42:03;;;;;;;12.85;7.75;;;0.10;99.90;;;;;;5072317;28;20047;-68
2024/01/21 00:44:30;;;;;;;10.68;7.72;;;0.10;99.90;;;;;;5051877;28;20052;-67
2024/01/21 00:46:56;;;;;;;12.02;7.18;;;0.30;99.90;;;;;;5052820;28;20044;-68
2024/01/21 00:49:23;;;;;;;10.15;6.93;;;0.10;99.90;;;;;;5073686;28;20083;-67
2024/01/21 00:51:50;;;;;;;12.07;7.00;;;0.10;99.90;;;;;;5056479;28;20098;-66
2024/01/21 00:54:17;;;;;;;9.80;6.85;;;0.20;99.90;;;;;;5056327;28;20057;-66
2024/01/21 00:56:45;;;;;;;11.70;6.68;;;0.20;99.90;;;;;;5075131;28;20044;-67
2024/01/21 00:59:12;;;;;;;12.48;6.80;;;0.30;99.90;;;;;;5074948;28;20443;-66
2024/01/21 01:01:39;;;;;;;10.35;6.88;;;0.30;99.90;;;;;;5053118;28;20049;-66
2024/01/21 01:04:06;;;;;;;12.10;6.63;;;0.30;99.90;;;;;;5075300;28;20052;-67
2024/01/21 01:06:33;;;;;;;9.98;7.10;;;0.30;99.90;;;;;;5074494;28;20044;-67
2024/01/21 01:09:00;;;;;;;12.90;6.95;;;0.30;99.90;;;;;;5055102;28;20041;-67
2024/01/21 01:11:27;;;;;;;10.85;6.93;;;0.30;99.90;;;;;;5055811;28;20491;-68
2024/01/21 01:13:56;;;;;;;11.50;7.10;;;0.30;99.90;;;;;;5052369;28;20041;-68
2024/01/21 01:16:24;;;;;;;11.07;7.18;;;0.30;99.90;;;;;;5056611;28;20064;-67
2024/01/21 01:18:51;;;;;;;9.57;6.75;;;0.30;99.90;;;;;;5055946;28;20095;-66
2024/01/21 01:21:18;;;;;;;10.18;6.35;;;0.30;99.90;;;;;;5056450;28;20086;-67
2024/01/21 01:23:45;;;;;;;10.20;7.10;;;0.30;99.90;;;;;;5054976;28;20501;-67
2024/01/21 01:26:12;;;;;;;10.73;6.72;;;0.30;99.90;;;;;;5056152;28;20048;-67
2024/01/21 01:28:39;;;;;;;10.13;6.45;;;0.40;99.90;;;;;;5054683;28;20064;-68
2024/01/21 01:31:07;;;;;;;10.10;6.63;;;0.40;99.90;;;;;;5054288;28;20087;-68
2024/01/21 01:33:34;;;;;;;10.60;5.97;;;0.40;99.90;;;;;;5056423;28;20074;-67
2024/01/21 01:36:01;;;;;;;9.15;5.85;;;0.50;99.90;;;;;;5054342;28;20443;-69
2024/01/21 01:38:28;;;;;;;8.90;6.68;;;0.70;99.90;;;;;;5055961;28;20056;-68
2024/01/21 01:40:55;;;;;;;11.35;6.63;;;0.60;99.90;;;;;;5054472;28;20389;-67
2024/01/21 01:43:21;;;;;;;8.85;5.80;;;0.90;99.90;;;;;;5056195;28;20048;-68
2024/01/21 01:45:48;;;;;;;9.05;7.00;;;0.60;99.90;;;;;;5056015;28;20044;-67
2024/01/21 01:48:17;;;;;;;9.10;6.25;;;0.60;99.90;;;;;;5050966;28;20090;-68
2024/01/21 01:50:44;;;;;;;9.43;6.38;;;0.60;99.90;;;;;;5055328;28;20107;-68
2024/01/21 01:53:11;;;;;;;9.73;6.60;;;0.60;99.90;;;;;;5073765;28;20036;-67
2024/01/21 01:55:38;;;;;;;8.52;6.15;;;0.60;99.90;;;;;;5072846;28;20504;-67
2024/01/21 01:58:05;;;;;;;11.27;7.90;;;0.60;99.90;;;;;;5073582;28;20396;-68
2024/01/21 02:00:32;;;;;;;10.52;6.40;;;0.70;99.90;;;;;;5050959;28;20049;-69
2024/01/21 02:03:00;;;;;;;9.40;6.68;;;0.50;99.90;;;;;;5054592;28;20059;-69
2024/01/21 02:05:28;;;;;;;11.13;6.60;;;0.60;99.90;;;;;;5054118;28;20098;-69
2024/01/21 02:07:55;;;;;;;8.63;6.07;;;0.60;99.90;;;;;;5055550;28;20527;-67
2024/01/21 02:10:22;;;;;;;10.52;6.10;;;0.50;99.90;;;;;;5072772;28;20157;-68
2024/01/21 02:12:51;;;;;;;10.98;6.38;;;0.60;99.90;;;;;;5051191;28;20484;-68
2024/01/21 02:15:18;;;;;;;12.27;7.03;;;0.50;99.90;;;;;;5055164;28;20067;-69
2024/01/21 02:17:45;;;;;;;11.25;6.07;;;0.50;99.90;;;;;;5052854;28;20099;-68
2024/01/21 02:20:15;;;;;;;10.20;6.70;;;0.50;99.90;;;;;;5054723;28;20040;-69
2024/01/21 02:22:43;;;;;;;9.05;6.57;;;0.50;99.90;;;;;;5057910;28;20172;-68
2024/01/21 02:25:12;;;;;;;10.48;6.00;;;0.40;99.90;;;;;;5073158;28;20048;-67
2024/01/21 02:27:39;;;;;;;8.27;6.05;;;0.40;99.90;;;;;;5093059;28;20048;-67
2024/01/21 02:30:07;;;;;;;11.20;6.25;;;0.50;99.90;;;;;;5073433;28;20044;-67
2024/01/21 02:32:34;;;;;;;9.60;5.63;;;0.40;99.90;;;;;;5070788;28;20105;-66
2024/01/21 02:35:01;;;;;;;9.65;6.15;;;0.40;99.90;;;;;;5074112;28;20094;-67
2024/01/21 02:37:28;;;;;;;8.20;5.40;;;0.40;99.90;;;;;;5072268;28;20056;-67
2024/01/21 02:39:54;;;;;;;9.63;6.18;;;0.40;99.90;;;;;;5074202;28;20052;-67
2024/01/21 02:42:23;;;;;;;8.32;5.70;;;0.40;99.90;;;;;;5073335;28;20045;-66
2024/01/21 02:44:50;;;;;;;8.95;6.55;;;0.60;99.90;;;;;;5073882;28;20055;-66
2024/01/21 02:47:18;;;;;;;11.52;6.38;;;0.60;99.90;;;;;;5073422;28;20052;-67
2024/01/21 02:49:45;;;;;;;11.50;5.88;;;0.40;99.90;;;;;;5072478;28;20555;-67
2024/01/21 02:52:11;;;;;;;8.48;5.22;;;0.50;99.90;;;;;;5072948;28;20049;-66
2024/01/21 02:54:38;;;;;;;7.30;5.35;;;0.50;99.90;;;;;;5072645;28;20047;-66
2024/01/21 02:57:04;;;;;;;9.18;5.68;;;0.50;99.90;;;;;;5073972;28;20052;-66
2024/01/21 02:59:32;;;;;;;7.20;5.07;;;0.50;99.90;;;;;;5074097;28;20044;-66
2024/01/21 03:01:59;;;;;;;7.35;5.00;;;0.60;99.90;;;;;;5074163;28;20089;-67
2024/01/21 03:04:26;;;;;;;7.30;5.05;;;0.60;99.90;;;;;;5074722;28;20404;-67
2024/01/21 03:06:53;;;;;;;7.28;4.85;;;0.60;99.90;;;;;;5074031;28;20500;-68
2024/01/21 03:09:20;;;;;;;7.75;5.05;;;0.60;99.90;;;;;;5074592;28;20048;-68
2024/01/21 03:11:47;;;;;;;8.18;4.90;;;0.70;99.90;;;;;;5074050;28;20040;-67
2024/01/21 03:14:14;;;;;;;7.70;5.15;;;0.70;99.90;;;;;;5073960;28;20125;-67
2024/01/21 03:16:42;;;;;;;7.22;4.85;;;1.30;99.90;;;;;;5070373;28;20052;-68
2024/01/21 03:19:09;;;;;;;7.60;4.55;;;0.80;99.90;;;;;;5073864;28;20059;-68
2024/01/21 03:21:35;;;;;;;8.77;5.18;;;0.70;99.90;;;;;;5072154;28;20048;-67
2024/01/21 03:24:02;;;;;;;7.70;5.20;;;0.70;99.90;;;;;;5073766;28;20097;-67
2024/01/21 03:26:29;;;;;;;9.48;4.85;;;0.70;99.90;;;;;;5072638;28;20501;-67
2024/01/21 03:28:57;;;;;;;7.18;4.57;;;0.70;99.90;;;;;;5074326;28;20052;-67
2024/01/21 03:31:24;;;;;;;5.43;4.45;;;0.70;99.90;;;;;;5074120;28;20483;-68
2024/01/21 03:33:52;;;;;;;7.95;4.95;;;0.70;99.90;;;;;;5091704;28;20047;-68
2024/01/21 03:36:19;;;;;;;7.38;4.35;;;0.70;99.90;;;;;;5073943;28;20114;-68
2024/01/21 03:38:50;;;;;;;5.35;4.20;;;0.80;99.90;;;;;;5074117;28;20052;-68
2024/01/21 03:41:17;;;;;;;6.07;4.07;;;0.90;99.90;;;;;;5073406;28;20044;-68
2024/01/21 03:43:44;;;;;;;7.72;4.13;;;0.70;99.90;;;;;;5074187;28;20407;-67
2024/01/21 03:46:10;;;;;;;8.60;4.78;;;0.80;99.90;;;;;;5092238;28;20556;-67
2024/01/21 03:48:37;;;;;;;6.13;4.13;;;0.60;99.90;;;;;;5091669;28;20442;-67
2024/01/21 03:51:06;;;;;;;5.50;3.60;;;0.50;99.90;;;;;;5074308;28;20437;-67
2024/01/21 03:53:33;;;;;;;5.10;3.95;;;0.50;99.90;;;;;;5072159;28;20044;-68
2024/01/21 03:56:00;;;;;;;6.45;4.13;;;0.40;99.90;;;;;;5073020;28;20044;-67
2024/01/21 03:58:27;;;;;;;6.88;3.90;;;0.40;99.90;;;;;;5072418;28;20094;-68
2024/01/21 04:00:53;;;;;;;8.38;4.30;;;0.40;99.90;;;;;;5073538;28;20051;-68
2024/01/21 04:03:20;;;;;;;5.80;3.75;;;0.40;99.90;;;;;;5071718;28;20094;-68
2024/01/21 04:05:47;;;;;;;5.60;4.07;;;0.40;99.90;;;;;;5073900;28;20097;-67
2024/01/21 04:08:15;;;;;;;9.00;4.07;;;0.50;99.90;;;;;;5074196;28;20040;-67
2024/01/21 04:10:42;;;;;;;5.00;3.78;;;0.40;99.90;;;;;;5071408;28;20048;-67
2024/01/21 04:13:10;;;;;;;5.20;3.70;;;0.50;99.90;;;;;;5072620;28;20118;-67
2024/01/21 04:15:36;;;;;;;5.78;3.95;;;0.40;99.90;;;;;;5071871;28;20056;-68
2024/01/21 04:18:04;;;;;;;6.10;3.97;;;0.50;99.90;;;;;;5073174;28;20105;-66
2024/01/21 04:20:31;;;;;;;5.55;3.50;;;0.50;99.90;;;;;;5091777;28;20052;-67
2024/01/21 04:22:57;;;;;;;4.72;3.65;;;0.50;99.90;;;;;;5090916;28;20060;-66
2024/01/21 04:25:26;;;;;;;5.80;3.88;;;0.50;99.90;;;;;;5077186;28;20093;-67
2024/01/21 04:27:52;;;;;;;4.75;3.40;;;1.00;99.90;;;;;;5077670;28;20047;-67
2024/01/21 04:30:19;;;;;;;5.18;3.90;;;0.60;99.90;;;;;;5076929;28;20109;-67
2024/01/21 04:32:47;;;;;;;5.68;3.42;;;0.60;99.90;;;;;;5077233;28;20044;-67
2024/01/21 04:35:14;;;;;;;5.35;3.45;;;0.60;99.90;;;;;;5095425;28;20040;-67
2024/01/21 04:37:41;;;;;;;6.63;3.38;;;0.60;99.90;;;;;;5076817;28;20453;-67
2024/01/21 04:40:09;;;;;;;4.53;3.08;;;0.70;99.90;;;;;;5073209;28;20496;-66
2024/01/21 04:42:37;;;;;;;5.07;3.20;;;0.70;99.90;;;;;;5095160;28;20105;-67
2024/01/21 04:45:05;;;;;;;6.40;3.67;;;0.70;99.90;;;;;;5075035;28;20094;-67
2024/01/21 04:47:32;;;;;;;3.95;3.50;;;0.70;99.90;;;;;;5095145;28;20036;-66
2024/01/21 04:49:59;;;;;;;4.93;3.13;;;0.80;99.90;;;;;;5075756;28;20059;-66
2024/01/21 04:52:27;;;;;;;5.05;3.53;;;0.80;99.90;;;;;;5076005;28;20129;-67
2024/01/21 04:54:54;;;;;;;10.57;3.50;;;0.90;99.90;;;;;;5075842;28;20136;-66
2024/01/21 04:57:21;;;;;;;5.07;3.50;;;0.90;99.90;;;;;;5076523;28;20048;-66
2024/01/21 04:59:49;;;;;;;6.05;3.10;;;0.90;99.90;;;;;;5076575;28;20063;-67
2024/01/21 05:02:16;;;;;;;6.63;3.03;;;0.90;99.90;;;;;;5074746;28;20098;-67
2024/01/21 05:04:43;;;;;;;4.40;3.00;;;1.10;99.90;;;;;;5076074;28;20484;-68
2024/01/21 05:07:10;;;;;;;5.28;3.42;;;0.90;99.90;;;;;;5071922;28;20166;-67
2024/01/21 05:09:36;;;;;;;3.30;2.90;;;0.90;99.90;;;;;;5076092;28;20109;-67
2024/01/21 05:12:04;;;;;;;5.63;3.60;;;1.00;99.90;;;;;;5074338;28;20554;-67
2024/01/21 05:14:31;;;;;;;6.38;3.22;;;1.00;99.90;;;;;;5076365;28;20055;-67
2024/01/21 05:16:59;;;;;;;3.53;2.97;;;1.00;99.90;;;;;;5075946;28;20114;-67
2024/01/21 05:19:26;;;;;;;4.95;2.95;;;1.00;99.90;;;;;;5073822;28;20048;-67
2024/01/21 05:21:53;;;;;;;3.97;3.03;;;1.00;99.90;;;;;;5076673;28;20109;-68
2024/01/21 05:24:20;;;;;;;5.75;3.13;;;1.10;99.90;;;;;;5072605;28;20110;-67
2024/01/21 05:26:47;;;;;;;4.65;2.95;;;1.10;99.90;;;;;;5072250;28;20064;-67
2024/01/21 05:29:14;;;;;;;4.45;2.90;;;1.10;99.90;;;;;;5072901;28;20045;-66
2024/01/21 05:31:41;;;;;;;4.30;3.10;;;1.10;99.90;;;;;;5072920;28;20113;-66
2024/01/21 05:34:09;;;;;;;5.00;3.08;;;1.70;99.90;;;;;;5072295;28;20557;-66
2024/01/21 05:36:36;;;;;;;4.72;3.08;;;1.20;99.90;;;;;;5071517;28;20094;-67
2024/01/21 05:39:03;;;;;;;4.65;2.72;;;0.30;99.30;;;;;;5072721;28;20048;-67
2024/01/21 05:41:30;;;;;;;9.77;3.10;;;1.30;99.20;;;;;;5072460;28;20060;-67
2024/01/21 05:43:58;;;;;;;4.32;2.80;;;1.50;99.90;;;;;;5072739;28;20060;-67
2024/01/21 05:46:25;;;;;;;3.42;2.78;;;1.30;99.60;;;;;;5072828;28;20060;-67
2024/01/21 05:48:51;;;;;;;4.55;2.70;;;1.30;99.80;;;;;;5072132;28;20049;-67
2024/01/21 05:51:20;;;;;;;4.78;2.70;;;1.40;99.40;;;;;;5072718;28;20052;-67
2024/01/21 05:53:47;;;;;;;4.40;2.85;;;1.80;99.30;;;;;;5072452;28;20546;-68
2024/01/21 05:56:17;;;;;;;5.93;3.03;;;1.40;99.40;;;;;;5071833;28;20045;-68
2024/01/21 05:58:44;;;;;;;4.45;3.20;;;1.40;99.10;;;;;;5072608;28;20434;-68
2024/01/21 06:01:11;;;;;;;5.38;3.58;;;1.60;99.30;;;;;;5067900;28;20451;-68
2024/01/21 06:03:37;;;;;;;4.28;2.85;;;1.50;99.10;;;;;;5072402;28;20385;-68
2024/01/21 06:06:05;;;;;;;3.97;3.25;;;1.60;99.40;;;;;;5072500;28;20385;-68
2024/01/21 06:08:33;;;;;;;4.55;3.20;;;1.50;99.00;;;;;;5071749;28;20052;-68
2024/01/21 06:11:00;;;;;;;6.70;3.78;;;1.60;99.10;;;;;;5072441;28;20462;-67
2024/01/21 06:13:27;;;;;;;5.18;3.20;;;1.50;99.20;;;;;;5072030;28;20458;-67
2024/01/21 06:15:54;;;;;;;5.10;3.53;;;1.50;99.50;;;;;;5071652;28;20447;-68
2024/01/21 06:18:21;;;;;;;4.53;3.20;;;1.50;99.30;;;;;;5070765;28;20136;-67
2024/01/21 06:20:48;;;;;;;4.55;3.50;;;1.50;99.70;;;;;;5072085;28;20045;-67
2024/01/21 06:23:15;;;;;;;4.75;3.17;;;1.90;99.60;;;;;;5071300;28;20054;-67
2024/01/21 06:25:43;;;;;;;6.80;3.88;;;1.70;99.60;;;;;;5072127;28;20125;-67
2024/01/21 06:28:10;;;;;;;5.13;3.35;;;1.50;99.70;;;;;;5071801;28;20048;-68
2024/01/21 06:30:37;;;;;;;4.80;3.60;;;1.50;99.90;;;;;;5071357;28;20057;-67
2024/01/21 06:33:04;;;;;;;5.55;3.42;;;1.50;99.90;;;;;;5071775;28;20049;-68
2024/01/21 06:35:31;;;;;;;6.50;3.58;;;1.50;99.80;;;;;;5072768;28;20051;-68
2024/01/21 06:37:58;;;;;;;5.82;3.92;;;1.40;99.90;;;;;;5071351;28;20098;-67
2024/01/21 06:40:25;;;;;;;4.82;3.50;;;1.40;99.90;;;;;;5071617;28;20131;-67
2024/01/21 06:42:53;;;;;;;6.15;4.45;;;1.40;99.90;;;;;;5072628;28;20040;-67
2024/01/21 06:45:20;;;;;;;9.43;3.97;;;1.40;99.90;;;;;;5071097;28;20106;-68
2024/01/21 06:47:47;;;;;;;7.30;3.78;;;1.40;99.90;;;;;;5071125;28;20045;-68
2024/01/21 06:50:14;;;;;;;6.90;3.65;;;1.30;99.90;;;;;;5071448;28;20044;-68
2024/01/21 06:52:41;;;;;;;5.30;3.97;;;1.30;99.90;;;;;;5070597;28;20504;-67
2024/01/21 06:55:09;;;;;;;8.15;3.72;;;1.30;99.90;;;;;;5070301;28;20048;-66
2024/01/21 06:57:36;;;;;;;4.63;3.17;;;1.30;99.90;;;;;;5070635;28;20498;-67
2024/01/21 07:00:06;;;;;;;4.75;3.47;;;1.30;99.90;;;;;;5071435;28;20045;-67
2024/01/21 07:02:32;;;;;;;7.65;4.20;;;1.30;99.90;;;;;;5067472;28;20127;-68
2024/01/21 07:04:59;;;;;;;6.22;3.50;;;1.40;99.90;;;;;;5070535;28;20079;-68
2024/01/21 07:07:26;;;;;;;8.25;3.80;;;1.30;99.90;;;;;;5071415;28;20052;-66
2024/01/21 07:09:53;;;;;;;5.40;3.60;;;1.30;99.90;;;;;;5072489;28;20056;-67
2024/01/21 07:12:20;;;;;;;6.05;4.00;;;1.30;99.90;;;;;;5070653;28;20052;-67
2024/01/21 07:14:47;;;;;;;8.38;4.38;;;1.70;99.90;;;;;;5071288;28;20052;-67
2024/01/21 07:17:15;;;;;;;5.85;4.10;;;1.30;99.90;;;;;;5072271;28;20054;-66
2024/01/21 07:19:43;;;;;;;6.97;4.78;;;1.30;99.90;;;;;;5070383;28;20047;-66
2024/01/21 07:22:10;;;;;;;6.13;4.05;;;1.30;99.90;;;;;;5067237;28;20091;-67
2024/01/21 07:24:37;;;;;;;7.70;4.40;;;1.30;99.90;;;;;;5072485;28;20165;-67
2024/01/21 07:27:04;;;;;;;10.13;3.80;;;1.30;99.90;;;;;;5072250;28;20041;-67
2024/01/21 07:29:31;;;;;;;7.00;3.60;;;1.30;99.90;;;;;;5050439;28;20052;-66
2024/01/21 07:31:58;;;;;;;7.18;4.90;;;1.30;99.90;;;;;;5053656;28;20045;-66
2024/01/21 07:34:26;;;;;;;7.38;4.38;;;1.30;99.90;;;;;;5049892;28;20095;-66
2024/01/21 07:36:53;;;;;;;4.78;3.67;;;1.30;99.90;;;;;;5054071;28;20049;-67
2024/01/21 07:39:20;;;;;;;7.10;3.90;;;1.50;99.90;;;;;;5072645;28;20040;-67
2024/01/21 07:41:46;;;;;;;7.75;4.75;;;1.30;99.90;;;;;;5053941;28;20064;-66
2024/01/21 07:44:13;;;;;;;6.18;4.40;;;1.40;99.90;;;;;;5052037;28;20041;-67
2024/01/21 07:46:40;;;;;;;7.15;4.18;;;1.40;99.90;;;;;;5053490;28;20044;-68
2024/01/21 07:49:07;;;;;;;8.07;4.38;;;1.40;99.90;;;;;;5052868;28;20073;-71
2024/01/21 07:51:35;;;;;;;6.97;4.78;;;1.50;99.90;;;;;;5052236;28;20110;-67
2024/01/21 07:54:02;;;;;;;6.57;4.47;;;1.50;99.90;;;;;;5053092;28;20119;-68
2024/01/21 07:56:29;;;;;;;6.13;4.07;;;1.50;99.90;;;;;;5045376;28;20492;-67
2024/01/21 07:58:56;;;;;;;7.90;4.57;;;1.60;99.90;;;;;;5053707;28;20451;-67
2024/01/21 08:01:24;;;;;;;6.57;4.18;;;1.60;99.90;;;;;;5053115;28;20048;-68
2024/01/21 08:03:50;;;;;;;6.93;4.65;;;1.60;99.90;;;;;;5057459;28;20512;-71
2024/01/21 08:06:20;;;;;;;7.93;4.22;;;1.50;99.90;;;;;;5055800;28;20044;-67
2024/01/21 08:08:48;;;;;;;5.55;4.03;;;1.50;99.90;;;;;;5056483;28;20045;-71
2024/01/21 08:11:16;;;;;;;10.48;4.80;;;1.70;99.90;;;;;;5072802;28;20484;-66
2024/01/21 08:13:44;;;;;;;9.25;5.32;;;1.60;99.90;;;;;;5057219;28;20045;-66
2024/01/21 08:16:13;;;;;;;7.35;4.50;;;1.60;99.90;;;;;;5056166;28;20435;-68
2024/01/21 08:18:40;;;;;;;7.00;4.75;;;1.60;99.90;;;;;;5057677;28;20127;-67
2024/01/21 08:21:07;;;;;;;5.60;4.50;;;1.60;99.90;;;;;;5075476;28;20488;-67
2024/01/21 08:23:35;;;;;;;6.55;4.32;;;1.60;99.90;;;;;;5069145;28;20442;-67
2024/01/21 08:26:05;;;;;;;7.78;4.70;;;1.90;99.90;;;;;;5056396;28;20151;-67
2024/01/21 08:28:32;;;;;;;8.85;5.15;;;1.70;99.90;;;;;;5057093;28;20061;-66
2024/01/21 08:30:59;;;;;;;4.90;3.88;;;1.70;99.90;;;;;;5055951;28;20053;-66
2024/01/21 08:33:26;;;;;;;6.63;4.13;;;1.80;99.90;;;;;;5073411;28;20098;-67
2024/01/21 08:35:54;;;;;;;5.90;4.63;;;1.80;99.90;;;;;;5074386;28;20060;-67
2024/01/21 08:38:21;;;;;;;7.88;4.78;;;1.80;99.90;;;;;;5055088;28;20041;-67
2024/01/21 08:40:48;;;;;;;8.63;5.05;;;1.80;99.90;;;;;;5054947;28;20056;-68
2024/01/21 08:43:16;;;;;;;6.93;4.47;;;1.80;99.90;;;;;;5065836;28;20082;-67
2024/01/21 08:45:43;;;;;;;7.00;4.82;;;1.80;99.90;;;;;;5056411;28;20492;-67
2024/01/21 08:48:10;;;;;;;7.65;4.82;;;1.90;99.90;;;;;;5084462;28;20443;-67
2024/01/21 08:50:36;;;;;;;8.68;4.72;;;1.90;99.90;;;;;;5054979;28;20091;-68
2024/01/21 08:53:04;;;;;;;7.60;5.00;;;2.00;99.90;;;;;;5056780;28;20090;-67
2024/01/21 08:55:30;;;;;;;7.07;4.32;;;2.00;99.90;;;;;;5073961;28;20084;-67
2024/01/21 08:57:57;;;;;;;5.57;4.10;;;2.10;99.90;;;;;;5053997;28;20048;-66
2024/01/21 09:00:26;;;;;;;7.85;4.53;;;2.20;99.90;;;;;;5074142;28;20059;-67
2024/01/21 09:02:52;;;;;;;6.43;4.35;;;2.10;99.90;;;;;;5074542;28;20049;-67
2024/01/21 09:05:19;;;;;;;8.20;4.93;;;2.10;99.90;;;;;;5054948;28;20060;-67
2024/01/21 09:07:46;;;;;;;7.18;4.43;;;2.20;99.90;;;;;;5054928;28;20045;-68
2024/01/21 09:10:14;;;;;;;9.02;5.10;;;2.20;99.90;;;;;;5073926;28;20488;-66
2024/01/21 09:12:40;;;;;;;9.93;5.75;;;2.20;99.90;;;;;;5056116;28;20426;-67
2024/01/21 09:15:08;;;;;;;9.15;4.80;;;2.50;99.90;;;;;;5074094;28;20106;-66
2024/01/21 09:17:37;;;;;;;8.43;4.78;;;2.20;99.90;;;;;;5056637;28;20064;-66
2024/01/21 09:20:04;;;;;;;6.95;4.45;;;2.50;99.90;;;;;;5055980;28;20048;-66
2024/01/21 09:22:31;;;;;;;6.05;4.38;;;2.20;99.90;;;;;;5057584;28;20048;-66
2024/01/21 09:24:58;;;;;;;5.57;4.22;;;2.30;99.90;;;;;;5052242;28;20057;-66
2024/01/21 09:27:25;;;;;;;6.95;4.72;;;2.30;99.90;;;;;;5054105;28;20044;-66
2024/01/21 09:29:52;;;;;;;8.32;4.90;;;2.40;99.90;;;;;;5052622;28;20045;-66
2024/01/21 09:32:19;;;;;;;7.93;4.80;;;2.50;99.90;;;;;;5052943;28;20049;-69
2024/01/21 09:34:47;;;;;;;11.55;5.30;;;2.50;99.90;;;;;;5051684;28;20041;-67
2024/01/21 09:37:14;;;;;;;7.43;4.72;;;2.50;99.90;;;;;;5055186;28;20052;-67
2024/01/21 09:39:41;;;;;;;7.55;5.20;;;2.60;99.90;;;;;;5052950;28;20060;-66
2024/01/21 09:42:08;;;;;;;7.32;4.45;;;2.60;99.90;;;;;;5055298;28;20052;-67
2024/01/21 09:44:38;;;;;;;6.88;4.53;;;2.60;99.90;;;;;;5054968;28;20061;-66
2024/01/21 09:47:05;;;;;;;7.63;4.90;;;2.60;99.90;;;;;;5052790;28;20041;-66
2024/01/21 09:49:32;;;;;;;8.23;5.57;;;2.70;99.90;;;;;;5053020;28;20443;-66
2024/01/21 09:52:03;;;;;;;9.45;4.75;;;2.90;99.90;;;;;;5049958;28;20049;-66
2024/01/21 09:54:30;;;;;;;7.15;4.72;;;2.80;99.90;;;;;;5072450;28;20049;-65
2024/01/21 09:56:57;;;;;;;6.57;4.68;;;2.80;99.90;;;;;;5054468;28;20091;-66
2024/01/21 09:59:24;;;;;;;7.05;5.00;;;2.80;99.90;;;;;;5054941;28;20102;-66
2024/01/21 10:01:51;;;;;;;7.43;5.03;;;2.80;99.90;;;;;;5052882;28;20122;-66
2024/01/21 10:04:20;;;;;;;7.85;5.38;;;2.80;99.90;;;;;;5055004;28;20538;-66
2024/01/21 10:06:47;;;;;;;9.70;5.30;;;2.90;99.90;;;;;;5052513;28;20468;-66
2024/01/21 10:09:17;;;;;;;10.52;5.95;;;2.90;99.90;;;;;;5052773;28;20056;-65
2024/01/21 10:11:48;;;;;;;8.32;5.15;;;3.00;99.90;;;;;;5054340;28;20515;-66
2024/01/21 10:14:15;;;;;;;9.68;5.68;;;3.00;99.90;;;;;;5053467;28;20037;-66
2024/01/21 10:16:43;;;;;;;8.15;4.78;;;3.10;99.90;;;;;;5053831;28;20048;-66
2024/01/21 10:19:13;;;;;;;9.15;5.32;;;3.10;99.90;;;;;;5053964;28;20045;-66
2024/01/21 10:21:40;;;;;;;7.68;4.50;;;3.10;99.90;;;;;;5053259;28;20067;-65
2024/01/21 10:24:08;;;;;;;7.75;4.90;;;3.30;99.90;;;;;;5063967;28;20056;-66
2024/01/21 10:26:37;;;;;;;9.23;5.18;;;3.40;99.90;;;;;;5071468;28;20056;-68
2024/01/21 10:29:04;;;;;;;8.73;5.53;;;3.60;99.90;;;;;;5073480;28;20055;-66
2024/01/21 10:31:33;;;;;;;8.68;5.00;;;3.80;99.90;;;;;;5073001;28;20063;-66
2024/01/21 10:34:02;;;;;;;7.32;5.53;;;4.00;99.90;;;;;;5074108;28;20143;-67
2024/01/21 10:36:33;;;;;;;8.25;5.80;;;4.00;99.90;;;;;;5071536;28;20074;-67
2024/01/21 10:39:04;;;;;;;26.45;6.18;;;3.90;99.90;;;;;;5072314;28;20389;-67
2024/01/21 10:41:32;;;;;;;8.82;5.82;;;3.80;99.90;;;;;;5092242;28;20490;-67
2024/01/21 10:44:02;;;;;;;7.40;5.07;;;3.70;99.90;;;;;;5072738;28;20036;-67
2024/01/21 10:46:32;;;;;;;7.90;5.40;;;3.70;99.90;;;;;;5070006;28;20052;-67
2024/01/21 10:49:00;;;;;;;7.43;5.22;;;3.60;99.90;;;;;;5091218;28;20124;-68
2024/01/21 10:51:29;;;;;;;14.20;6.32;;;3.60;99.90;;;;;;5089730;28;20044;-67
2024/01/21 10:53:59;;;;;;;9.02;5.50;;;3.60;99.90;;;;;;5073366;28;20036;-67
2024/01/21 10:56:27;;;;;;;11.65;5.85;;;3.70;99.90;;;;;;5073555;28;20067;-67
2024/01/21 10:58:54;;;;;;;9.90;6.05;;;3.60;99.90;;;;;;5071328;28;20041;-67
2024/01/21 11:01:24;;;;;;;10.48;6.43;;;4.60;99.90;;;;;;5091575;28;20074;-66
2024/01/21 11:04:03;;;;;;;9.52;6.35;;;3.70;99.90;;;;;;5090989;28;20495;-66
2024/01/21 11:06:30;;;;;;;7.97;5.68;;;3.70;99.90;;;;;;5071907;28;20052;-65
2024/01/21 11:09:00;;;;;;;9.90;5.63;;;3.80;99.90;;;;;;5091866;28;20056;-67
2024/01/21 11:11:27;;;;;;;8.88;6.38;;;3.80;99.90;;;;;;5071948;28;20492;-70
2024/01/21 11:13:54;;;;;;;11.50;6.25;;;3.80;99.90;;;;;;5071760;28;20090;-68
2024/01/21 11:16:38;;;;;;;10.88;5.93;;;3.90;99.90;;;;;;5071364;28;20178;-67
2024/01/21 11:19:07;;;;;;;9.50;6.15;;;4.00;99.90;;;;;;5069315;28;20055;-66
2024/01/21 11:21:35;;;;;;;9.13;5.80;;;4.00;99.90;;;;;;5071933;28;20044;-66
2024/01/21 11:24:07;;;;;;;10.00;6.03;;;4.00;99.90;;;;;;5072509;28;20503;-67
2024/01/21 11:26:41;;;;;;;8.20;5.50;;;4.00;99.90;;;;;;5070714;28;20424;-67
2024/01/21 11:29:23;;;;;;;8.82;5.93;;;4.00;99.90;;;;;;5089895;28;20101;-66
2024/01/21 11:31:51;;;;;;;9.32;5.90;;;4.00;99.90;;;;;;5072375;28;20048;-67
2024/01/21 11:34:18;;;;;;;8.45;5.97;;;4.00;99.90;;;;;;5091335;28;20066;-67
2024/01/21 11:36:47;;;;;;;14.02;6.45;;;4.00;99.90;;;;;;5073057;28;20617;-66
2024/01/21 11:39:15;;;;;;;9.00;5.72;;;4.00;99.90;;;;;;5072013;28;20352;-67
2024/01/21 11:41:42;;;;;;;8.77;5.80;;;4.10;99.90;;;;;;5068797;28;20052;-67
2024/01/21 11:44:11;;;;;;;10.98;6.18;;;4.10;99.90;;;;;;5072326;28;20150;-66
2024/01/21 11:46:39;;;;;;;9.70;6.05;;;4.10;99.90;;;;;;5068177;28;20110;-66
2024/01/21 11:49:08;;;;;;;10.68;6.63;;;4.00;99.90;;;;;;5071266;28;20052;-66
2024/01/21 11:51:35;;;;;;;9.98;6.07;;;4.10;99.90;;;;;;5073629;28;20088;-67
2024/01/21 11:54:02;;;;;;;9.48;6.15;;;4.00;99.90;;;;;;5068719;28;20093;-67
2024/01/21 11:56:29;;;;;;;7.50;6.10;;;4.00;99.90;;;;;;5072361;28;20086;-66
2024/01/21 11:58:57;;;;;;;12.50;6.55;;;4.00;99.90;;;;;;5072572;28;20072;-66
2024/01/21 12:01:25;;;;;;;9.38;6.47;;;4.00;99.90;;;;;;5070883;28;20055;-66
2024/01/21 12:03:51;;;;;;;9.40;6.38;;;3.90;99.90;;;;;;5067740;28;20411;-67
2024/01/21 12:06:21;;;;;;;8.55;5.90;;;4.00;99.90;;;;;;5091322;28;20105;-66
2024/01/21 12:08:48;;;;;;;13.00;7.32;;;4.00;99.90;;;;;;5070463;28;20040;-66
2024/01/21 12:11:16;;;;;;;12.80;7.00;;;4.00;99.90;;;;;;5091295;28;20403;-67
2024/01/21 12:13:44;;;;;;;9.95;6.65;;;4.00;99.90;;;;;;5070601;28;20072;-65
2024/01/21 12:16:11;;;;;;;10.57;6.50;;;3.90;99.90;;;;;;5071102;28;20163;-67
2024/01/21 12:18:40;;;;;;;9.13;6.57;;;3.90;99.90;;;;;;5071214;28;20098;-66
2024/01/21 12:21:07;;;;;;;10.35;6.53;;;4.00;99.90;;;;;;5070271;28;20064;-67
2024/01/21 12:23:35;;;;;;;11.18;6.90;;;3.90;99.90;;;;;;5072191;28;20587;-67
2024/01/21 12:26:03;;;;;;;10.70;6.43;;;4.00;99.90;;;;;;5083259;28;20576;-66
2024/01/21 12:28:30;;;;;;;12.18;6.90;;;4.00;99.90;;;;;;5070351;28;20135;-66
2024/01/21 12:30:58;;;;;;;8.65;7.15;;;3.90;99.90;;;;;;5071810;28;20499;-67
2024/01/21 12:33:26;;;;;;;11.98;7.30;;;4.00;99.90;;;;;;5071459;28;20051;-66
2024/01/21 12:35:53;;;;;;;11.95;6.38;;;4.00;99.90;;;;;;5090410;28;20463;-66
2024/01/21 12:38:20;;;;;;;10.43;6.88;;;3.90;99.90;;;;;;5072178;28;20060;-66
2024/01/21 12:40:51;;;;;;;11.43;6.78;;;3.90;99.90;;;;;;5068333;28;20052;-66
2024/01/21 12:43:18;;;;;;;9.38;5.97;;;4.60;99.90;;;;;;5069908;28;20056;-67
2024/01/21 12:45:45;;;;;;;9.30;6.22;;;3.90;99.90;;;;;;5074486;28;20048;-66
2024/01/21 12:48:12;;;;;;;10.07;6.43;;;3.90;99.90;;;;;;5094516;28;20445;-66
2024/01/21 12:50:41;;;;;;;11.40;7.28;;;4.00;99.90;;;;;;5074639;28;20538;-66
2024/01/21 12:53:09;;;;;;;10.38;7.03;;;3.90;99.90;;;;;;5076200;28;20078;-66
2024/01/21 12:55:36;;;;;;;11.70;7.13;;;4.20;99.90;;;;;;5074213;28;20094;-66